sensor_id;sensor_type;location;lat;lon;timestamp;P1;durP1;ratioP1;P2;durP2;ratioP2
79128;SDS011;68529;43.286;23.360;2023-12-07T00:00:28;12.10;;;8.30;;
79128;SDS011;68529;43.286;23.360;2023-12-07T00:02:53;14.97;;;10.13;;
79128;SDS011;68529;43.286;23.360;2023-12-07T00:05:18;14.93;;;10.00;;
79128;SDS011;68529;43.286;23.360;2023-12-07T00:07:44;16.50;;;11.50;;
79128;SDS011;68529;43.286;23.360;2023-12-07T00:10:09;19.60;;;11.67;;
79128;SDS011;68529;43.286;23.360;2023-12-07T00:12:35;16.07;;;11.23;;
79128;SDS011;68529;43.286;23.360;2023-12-07T00:15:00;15.07;;;11.53;;
79128;SDS011;68529;43.286;23.360;2023-12-07T00:17:25;14.87;;;10.37;;
79128;SDS011;68529;43.286;23.360;2023-12-07T00:19:51;13.30;;;9.80;;
79128;SDS011;68529;43.286;23.360;2023-12-07T00:22:18;14.90;;;10.20;;
79128;SDS011;68529;43.286;23.360;2023-12-07T00:24:44;15.57;;;10.53;;
79128;SDS011;68529;43.286;23.360;2023-12-07T00:27:10;14.37;;;10.17;;
79128;SDS011;68529;43.286;23.360;2023-12-07T00:29:36;15.27;;;11.37;;
79128;SDS011;68529;43.286;23.360;2023-12-07T00:32:02;15.30;;;10.83;;
79128;SDS011;68529;43.286;23.360;2023-12-07T00:34:28;17.70;;;11.33;;
79128;SDS011;68529;43.286;23.360;2023-12-07T00:36:53;17.90;;;11.90;;
79128;SDS011;68529;43.286;23.360;2023-12-07T00:39:19;17.40;;;10.93;;
79128;SDS011;68529;43.286;23.360;2023-12-07T00:41:44;22.83;;;12.93;;
79128;SDS011;68529;43.286;23.360;2023-12-07T00:44:11;22.57;;;13.93;;
79128;SDS011;68529;43.286;23.360;2023-12-07T00:46:37;25.27;;;14.07;;
79128;SDS011;68529;43.286;23.360;2023-12-07T00:49:02;19.40;;;11.87;;
79128;SDS011;68529;43.286;23.360;2023-12-07T00:51:28;18.30;;;12.03;;
79128;SDS011;68529;43.286;23.360;2023-12-07T00:53:53;14.63;;;10.57;;
79128;SDS011;68529;43.286;23.360;2023-12-07T00:56:18;15.57;;;10.87;;
79128;SDS011;68529;43.286;23.360;2023-12-07T00:58:44;18.67;;;11.10;;
79128;SDS011;68529;43.286;23.360;2023-12-07T01:01:09;16.03;;;11.20;;
79128;SDS011;68529;43.286;23.360;2023-12-07T01:03:34;17.83;;;11.47;;
79128;SDS011;68529;43.286;23.360;2023-12-07T01:06:00;15.47;;;10.47;;
79128;SDS011;68529;43.286;23.360;2023-12-07T01:08:25;20.40;;;11.40;;
79128;SDS011;68529;43.286;23.360;2023-12-07T01:10:50;19.17;;;12.00;;
79128;SDS011;68529;43.286;23.360;2023-12-07T01:13:16;18.07;;;11.57;;
79128;SDS011;68529;43.286;23.360;2023-12-07T01:15:41;19.27;;;12.37;;
79128;SDS011;68529;43.286;23.360;2023-12-07T01:18:07;17.23;;;11.30;;
79128;SDS011;68529;43.286;23.360;2023-12-07T01:20:32;22.13;;;13.13;;
79128;SDS011;68529;43.286;23.360;2023-12-07T01:22:57;23.07;;;12.60;;
79128;SDS011;68529;43.286;23.360;2023-12-07T01:25:23;18.87;;;11.90;;
79128;SDS011;68529;43.286;23.360;2023-12-07T01:27:49;14.30;;;9.77;;
79128;SDS011;68529;43.286;23.360;2023-12-07T01:30:14;16.70;;;10.87;;
79128;SDS011;68529;43.286;23.360;2023-12-07T01:32:40;15.77;;;10.37;;
79128;SDS011;68529;43.286;23.360;2023-12-07T01:35:06;14.43;;;9.83;;
79128;SDS011;68529;43.286;23.360;2023-12-07T01:37:32;13.90;;;9.67;;
79128;SDS011;68529;43.286;23.360;2023-12-07T01:39:57;14.90;;;10.20;;
79128;SDS011;68529;43.286;23.360;2023-12-07T01:42:22;13.67;;;9.87;;
79128;SDS011;68529;43.286;23.360;2023-12-07T01:44:48;16.00;;;9.50;;
79128;SDS011;68529;43.286;23.360;2023-12-07T01:47:13;13.60;;;9.37;;
79128;SDS011;68529;43.286;23.360;2023-12-07T01:49:39;12.80;;;9.20;;
79128;SDS011;68529;43.286;23.360;2023-12-07T01:52:06;15.20;;;9.23;;
79128;SDS011;68529;43.286;23.360;2023-12-07T01:54:32;11.87;;;8.43;;
79128;SDS011;68529;43.286;23.360;2023-12-07T01:56:59;12.10;;;8.80;;
79128;SDS011;68529;43.286;23.360;2023-12-07T01:59:24;11.37;;;8.70;;
79128;SDS011;68529;43.286;23.360;2023-12-07T02:01:49;12.27;;;8.17;;
79128;SDS011;68529;43.286;23.360;2023-12-07T02:04:15;15.53;;;9.13;;
79128;SDS011;68529;43.286;23.360;2023-12-07T02:06:41;12.60;;;9.10;;
79128;SDS011;68529;43.286;23.360;2023-12-07T02:09:07;13.70;;;8.90;;
79128;SDS011;68529;43.286;23.360;2023-12-07T02:11:33;13.90;;;9.57;;
79128;SDS011;68529;43.286;23.360;2023-12-07T02:13:59;14.57;;;8.63;;
79128;SDS011;68529;43.286;23.360;2023-12-07T02:16:28;13.80;;;8.83;;
79128;SDS011;68529;43.286;23.360;2023-12-07T02:19:23;12.23;;;7.80;;
79128;SDS011;68529;43.286;23.360;2023-12-07T02:22:02;14.17;;;9.30;;
79128;SDS011;68529;43.286;23.360;2023-12-07T02:24:33;17.13;;;10.63;;
79128;SDS011;68529;43.286;23.360;2023-12-07T02:27:02;13.60;;;9.03;;
79128;SDS011;68529;43.286;23.360;2023-12-07T02:29:28;17.37;;;13.30;;
79128;SDS011;68529;43.286;23.360;2023-12-07T02:31:53;12.63;;;9.53;;
79128;SDS011;68529;43.286;23.360;2023-12-07T02:34:19;14.10;;;9.83;;
79128;SDS011;68529;43.286;23.360;2023-12-07T02:36:44;17.57;;;10.90;;
79128;SDS011;68529;43.286;23.360;2023-12-07T02:39:13;17.73;;;11.37;;
79128;SDS011;68529;43.286;23.360;2023-12-07T02:41:39;21.87;;;12.13;;
79128;SDS011;68529;43.286;23.360;2023-12-07T02:44:06;19.73;;;11.80;;
79128;SDS011;68529;43.286;23.360;2023-12-07T02:46:32;17.40;;;11.33;;
79128;SDS011;68529;43.286;23.360;2023-12-07T02:48:58;19.03;;;11.70;;
79128;SDS011;68529;43.286;23.360;2023-12-07T02:51:23;21.67;;;13.73;;
79128;SDS011;68529;43.286;23.360;2023-12-07T02:53:49;23.03;;;14.63;;
79128;SDS011;68529;43.286;23.360;2023-12-07T02:56:14;19.90;;;12.53;;
79128;SDS011;68529;43.286;23.360;2023-12-07T02:58:40;21.30;;;13.23;;
79128;SDS011;68529;43.286;23.360;2023-12-07T03:01:05;23.77;;;13.50;;
79128;SDS011;68529;43.286;23.360;2023-12-07T03:03:31;23.33;;;13.30;;
79128;SDS011;68529;43.286;23.360;2023-12-07T03:05:56;18.90;;;11.77;;
79128;SDS011;68529;43.286;23.360;2023-12-07T03:08:21;22.50;;;13.23;;
79128;SDS011;68529;43.286;23.360;2023-12-07T03:10:47;22.03;;;13.37;;
79128;SDS011;68529;43.286;23.360;2023-12-07T03:13:12;22.20;;;14.57;;
79128;SDS011;68529;43.286;23.360;2023-12-07T03:15:38;21.73;;;13.40;;
79128;SDS011;68529;43.286;23.360;2023-12-07T03:18:04;24.03;;;12.60;;
79128;SDS011;68529;43.286;23.360;2023-12-07T03:20:30;19.93;;;12.23;;
79128;SDS011;68529;43.286;23.360;2023-12-07T03:22:56;22.03;;;13.00;;
79128;SDS011;68529;43.286;23.360;2023-12-07T03:25:21;19.43;;;12.70;;
79128;SDS011;68529;43.286;23.360;2023-12-07T03:27:46;21.47;;;12.97;;
79128;SDS011;68529;43.286;23.360;2023-12-07T03:30:12;22.10;;;13.77;;
79128;SDS011;68529;43.286;23.360;2023-12-07T03:32:38;20.80;;;12.57;;
79128;SDS011;68529;43.286;23.360;2023-12-07T03:35:03;20.67;;;12.83;;
79128;SDS011;68529;43.286;23.360;2023-12-07T03:37:29;21.40;;;13.40;;
79128;SDS011;68529;43.286;23.360;2023-12-07T03:39:54;21.57;;;13.00;;
79128;SDS011;68529;43.286;23.360;2023-12-07T03:42:19;18.93;;;13.00;;
79128;SDS011;68529;43.286;23.360;2023-12-07T03:44:45;16.63;;;11.23;;
79128;SDS011;68529;43.286;23.360;2023-12-07T03:47:10;20.03;;;11.40;;
79128;SDS011;68529;43.286;23.360;2023-12-07T03:49:36;16.20;;;10.63;;
79128;SDS011;68529;43.286;23.360;2023-12-07T03:52:03;13.70;;;10.03;;
79128;SDS011;68529;43.286;23.360;2023-12-07T03:54:29;20.10;;;13.03;;
79128;SDS011;68529;43.286;23.360;2023-12-07T03:56:55;17.27;;;11.87;;
79128;SDS011;68529;43.286;23.360;2023-12-07T03:59:20;15.87;;;10.47;;
79128;SDS011;68529;43.286;23.360;2023-12-07T04:01:45;16.77;;;11.97;;
79128;SDS011;68529;43.286;23.360;2023-12-07T04:04:11;18.67;;;12.20;;
79128;SDS011;68529;43.286;23.360;2023-12-07T04:06:36;18.23;;;12.40;;
79128;SDS011;68529;43.286;23.360;2023-12-07T04:09:01;17.97;;;12.17;;
79128;SDS011;68529;43.286;23.360;2023-12-07T04:11:29;22.17;;;12.93;;
79128;SDS011;68529;43.286;23.360;2023-12-07T04:13:54;22.53;;;14.13;;
79128;SDS011;68529;43.286;23.360;2023-12-07T04:16:20;24.93;;;13.93;;
79128;SDS011;68529;43.286;23.360;2023-12-07T04:18:45;21.40;;;13.67;;
79128;SDS011;68529;43.286;23.360;2023-12-07T04:21:11;20.00;;;13.77;;
79128;SDS011;68529;43.286;23.360;2023-12-07T04:23:36;20.83;;;14.70;;
79128;SDS011;68529;43.286;23.360;2023-12-07T04:26:02;25.33;;;15.77;;
79128;SDS011;68529;43.286;23.360;2023-12-07T04:28:27;21.20;;;14.77;;
79128;SDS011;68529;43.286;23.360;2023-12-07T04:30:53;23.40;;;15.57;;
79128;SDS011;68529;43.286;23.360;2023-12-07T04:33:18;23.17;;;14.83;;
79128;SDS011;68529;43.286;23.360;2023-12-07T04:35:44;25.53;;;17.00;;
79128;SDS011;68529;43.286;23.360;2023-12-07T04:38:09;28.40;;;16.40;;
79128;SDS011;68529;43.286;23.360;2023-12-07T04:40:35;22.20;;;14.50;;
79128;SDS011;68529;43.286;23.360;2023-12-07T04:43:00;21.53;;;13.90;;
79128;SDS011;68529;43.286;23.360;2023-12-07T04:45:25;25.17;;;14.00;;
79128;SDS011;68529;43.286;23.360;2023-12-07T04:47:51;21.00;;;14.37;;
79128;SDS011;68529;43.286;23.360;2023-12-07T04:50:16;26.80;;;17.57;;
79128;SDS011;68529;43.286;23.360;2023-12-07T04:52:42;20.90;;;15.60;;
79128;SDS011;68529;43.286;23.360;2023-12-07T04:55:07;19.40;;;12.50;;
79128;SDS011;68529;43.286;23.360;2023-12-07T04:57:36;19.73;;;12.73;;
79128;SDS011;68529;43.286;23.360;2023-12-07T05:00:04;15.97;;;12.23;;
79128;SDS011;68529;43.286;23.360;2023-12-07T05:02:35;18.10;;;12.77;;
79128;SDS011;68529;43.286;23.360;2023-12-07T05:05:00;18.77;;;13.13;;
79128;SDS011;68529;43.286;23.360;2023-12-07T05:07:26;21.97;;;13.07;;
79128;SDS011;68529;43.286;23.360;2023-12-07T05:09:51;19.97;;;13.47;;
79128;SDS011;68529;43.286;23.360;2023-12-07T05:12:17;26.43;;;17.47;;
79128;SDS011;68529;43.286;23.360;2023-12-07T05:14:42;25.27;;;18.20;;
79128;SDS011;68529;43.286;23.360;2023-12-07T05:17:08;30.57;;;19.50;;
79128;SDS011;68529;43.286;23.360;2023-12-07T05:19:34;22.67;;;15.80;;
79128;SDS011;68529;43.286;23.360;2023-12-07T05:21:59;21.80;;;14.77;;
79128;SDS011;68529;43.286;23.360;2023-12-07T05:24:25;18.47;;;12.87;;
79128;SDS011;68529;43.286;23.360;2023-12-07T05:26:50;20.03;;;12.60;;
79128;SDS011;68529;43.286;23.360;2023-12-07T05:29:16;24.10;;;14.13;;
79128;SDS011;68529;43.286;23.360;2023-12-07T05:31:42;19.13;;;12.50;;
79128;SDS011;68529;43.286;23.360;2023-12-07T05:34:07;19.10;;;13.23;;
79128;SDS011;68529;43.286;23.360;2023-12-07T05:36:33;17.23;;;12.33;;
79128;SDS011;68529;43.286;23.360;2023-12-07T05:38:58;20.63;;;12.97;;
79128;SDS011;68529;43.286;23.360;2023-12-07T05:41:24;19.43;;;13.40;;
79128;SDS011;68529;43.286;23.360;2023-12-07T05:43:50;18.83;;;12.03;;
79128;SDS011;68529;43.286;23.360;2023-12-07T05:46:16;17.00;;;11.13;;
79128;SDS011;68529;43.286;23.360;2023-12-07T05:48:41;34.23;;;22.00;;
79128;SDS011;68529;43.286;23.360;2023-12-07T05:51:13;33.07;;;21.73;;
79128;SDS011;68529;43.286;23.360;2023-12-07T05:53:40;27.80;;;18.13;;
79128;SDS011;68529;43.286;23.360;2023-12-07T05:56:05;24.73;;;14.90;;
79128;SDS011;68529;43.286;23.360;2023-12-07T05:58:31;18.40;;;13.80;;
79128;SDS011;68529;43.286;23.360;2023-12-07T06:00:57;18.33;;;13.13;;
79128;SDS011;68529;43.286;23.360;2023-12-07T06:03:24;18.23;;;12.77;;
79128;SDS011;68529;43.286;23.360;2023-12-07T06:05:50;17.97;;;12.20;;
79128;SDS011;68529;43.286;23.360;2023-12-07T06:08:16;17.10;;;11.13;;
79128;SDS011;68529;43.286;23.360;2023-12-07T06:10:41;17.07;;;11.77;;
79128;SDS011;68529;43.286;23.360;2023-12-07T06:13:07;19.73;;;12.40;;
79128;SDS011;68529;43.286;23.360;2023-12-07T06:15:33;20.43;;;13.77;;
79128;SDS011;68529;43.286;23.360;2023-12-07T06:17:58;24.67;;;17.47;;
79128;SDS011;68529;43.286;23.360;2023-12-07T06:20:23;28.93;;;19.10;;
79128;SDS011;68529;43.286;23.360;2023-12-07T06:22:49;26.13;;;18.23;;
79128;SDS011;68529;43.286;23.360;2023-12-07T06:25:14;23.57;;;16.13;;
79128;SDS011;68529;43.286;23.360;2023-12-07T06:27:41;21.13;;;13.73;;
79128;SDS011;68529;43.286;23.360;2023-12-07T06:30:06;16.20;;;12.00;;
79128;SDS011;68529;43.286;23.360;2023-12-07T06:32:32;16.67;;;10.97;;
79128;SDS011;68529;43.286;23.360;2023-12-07T06:34:58;15.10;;;11.30;;
79128;SDS011;68529;43.286;23.360;2023-12-07T06:37:24;15.70;;;11.40;;
79128;SDS011;68529;43.286;23.360;2023-12-07T06:39:49;17.13;;;12.13;;
79128;SDS011;68529;43.286;23.360;2023-12-07T06:42:15;18.47;;;12.50;;
79128;SDS011;68529;43.286;23.360;2023-12-07T06:44:42;19.10;;;13.57;;
79128;SDS011;68529;43.286;23.360;2023-12-07T06:47:08;20.67;;;14.43;;
79128;SDS011;68529;43.286;23.360;2023-12-07T06:49:34;18.00;;;14.23;;
79128;SDS011;68529;43.286;23.360;2023-12-07T06:52:01;25.73;;;17.43;;
79128;SDS011;68529;43.286;23.360;2023-12-07T06:54:26;25.03;;;17.60;;
79128;SDS011;68529;43.286;23.360;2023-12-07T06:56:51;20.87;;;14.17;;
79128;SDS011;68529;43.286;23.360;2023-12-07T06:59:17;19.83;;;13.10;;
79128;SDS011;68529;43.286;23.360;2023-12-07T07:01:42;15.13;;;11.20;;
79128;SDS011;68529;43.286;23.360;2023-12-07T07:04:08;17.23;;;12.37;;
79128;SDS011;68529;43.286;23.360;2023-12-07T07:06:33;20.13;;;12.93;;
79128;SDS011;68529;43.286;23.360;2023-12-07T07:08:59;21.60;;;14.27;;
79128;SDS011;68529;43.286;23.360;2023-12-07T07:11:24;14.53;;;10.57;;
79128;SDS011;68529;43.286;23.360;2023-12-07T07:13:50;20.83;;;13.70;;
79128;SDS011;68529;43.286;23.360;2023-12-07T07:16:15;20.30;;;15.10;;
79128;SDS011;68529;43.286;23.360;2023-12-07T07:18:41;21.57;;;14.73;;
79128;SDS011;68529;43.286;23.360;2023-12-07T07:21:06;23.37;;;15.73;;
79128;SDS011;68529;43.286;23.360;2023-12-07T07:23:32;20.23;;;15.73;;
79128;SDS011;68529;43.286;23.360;2023-12-07T07:25:59;22.40;;;16.77;;
79128;SDS011;68529;43.286;23.360;2023-12-07T07:28:25;23.10;;;16.50;;
79128;SDS011;68529;43.286;23.360;2023-12-07T07:30:51;25.00;;;17.83;;
79128;SDS011;68529;43.286;23.360;2023-12-07T07:33:16;22.00;;;16.60;;
79128;SDS011;68529;43.286;23.360;2023-12-07T07:35:42;28.43;;;19.20;;
79128;SDS011;68529;43.286;23.360;2023-12-07T07:38:07;26.70;;;19.10;;
79128;SDS011;68529;43.286;23.360;2023-12-07T07:40:32;26.07;;;18.23;;
79128;SDS011;68529;43.286;23.360;2023-12-07T07:42:58;22.87;;;17.23;;
79128;SDS011;68529;43.286;23.360;2023-12-07T07:45:23;21.40;;;16.30;;
79128;SDS011;68529;43.286;23.360;2023-12-07T07:47:49;31.07;;;19.30;;
79128;SDS011;68529;43.286;23.360;2023-12-07T07:50:15;31.83;;;20.40;;
79128;SDS011;68529;43.286;23.360;2023-12-07T07:52:41;26.77;;;19.50;;
79128;SDS011;68529;43.286;23.360;2023-12-07T07:55:07;30.00;;;22.67;;
79128;SDS011;68529;43.286;23.360;2023-12-07T07:57:33;33.23;;;23.03;;
79128;SDS011;68529;43.286;23.360;2023-12-07T07:59:58;29.33;;;21.70;;
79128;SDS011;68529;43.286;23.360;2023-12-07T08:02:24;32.17;;;22.73;;
79128;SDS011;68529;43.286;23.360;2023-12-07T08:04:49;36.40;;;21.83;;
79128;SDS011;68529;43.286;23.360;2023-12-07T08:07:16;31.80;;;21.50;;
79128;SDS011;68529;43.286;23.360;2023-12-07T08:09:42;30.30;;;21.77;;
79128;SDS011;68529;43.286;23.360;2023-12-07T08:12:07;28.23;;;19.37;;
79128;SDS011;68529;43.286;23.360;2023-12-07T08:14:35;24.43;;;17.73;;
79128;SDS011;68529;43.286;23.360;2023-12-07T08:17:00;25.07;;;17.40;;
79128;SDS011;68529;43.286;23.360;2023-12-07T08:19:26;19.57;;;12.97;;
79128;SDS011;68529;43.286;23.360;2023-12-07T08:21:51;28.07;;;17.33;;
79128;SDS011;68529;43.286;23.360;2023-12-07T08:24:16;28.57;;;18.83;;
79128;SDS011;68529;43.286;23.360;2023-12-07T08:26:42;26.83;;;17.93;;
79128;SDS011;68529;43.286;23.360;2023-12-07T08:29:07;20.37;;;14.77;;
79128;SDS011;68529;43.286;23.360;2023-12-07T08:31:33;19.30;;;14.17;;
79128;SDS011;68529;43.286;23.360;2023-12-07T08:33:58;26.67;;;18.70;;
79128;SDS011;68529;43.286;23.360;2023-12-07T08:36:25;22.07;;;16.40;;
79128;SDS011;68529;43.286;23.360;2023-12-07T08:38:51;20.80;;;16.67;;
79128;SDS011;68529;43.286;23.360;2023-12-07T08:41:16;22.80;;;16.37;;
79128;SDS011;68529;43.286;23.360;2023-12-07T08:43:42;21.90;;;15.33;;
79128;SDS011;68529;43.286;23.360;2023-12-07T08:46:07;19.73;;;14.53;;
79128;SDS011;68529;43.286;23.360;2023-12-07T08:48:33;21.50;;;14.83;;
79128;SDS011;68529;43.286;23.360;2023-12-07T08:50:59;25.30;;;17.17;;
79128;SDS011;68529;43.286;23.360;2023-12-07T08:53:25;24.60;;;17.40;;
79128;SDS011;68529;43.286;23.360;2023-12-07T08:55:52;33.40;;;21.13;;
79128;SDS011;68529;43.286;23.360;2023-12-07T08:58:18;28.27;;;19.27;;
79128;SDS011;68529;43.286;23.360;2023-12-07T09:00:43;24.80;;;18.00;;
79128;SDS011;68529;43.286;23.360;2023-12-07T09:03:09;25.50;;;19.03;;
79128;SDS011;68529;43.286;23.360;2023-12-07T09:05:34;28.87;;;20.83;;
79128;SDS011;68529;43.286;23.360;2023-12-07T09:08:00;24.60;;;18.47;;
79128;SDS011;68529;43.286;23.360;2023-12-07T09:10:25;27.73;;;17.50;;
79128;SDS011;68529;43.286;23.360;2023-12-07T09:12:51;24.43;;;18.13;;
79128;SDS011;68529;43.286;23.360;2023-12-07T09:15:16;25.37;;;18.53;;
79128;SDS011;68529;43.286;23.360;2023-12-07T09:17:42;16.93;;;12.93;;
79128;SDS011;68529;43.286;23.360;2023-12-07T09:20:08;20.43;;;14.17;;
79128;SDS011;68529;43.286;23.360;2023-12-07T09:22:38;24.17;;;17.33;;
79128;SDS011;68529;43.286;23.360;2023-12-07T09:25:05;22.03;;;13.77;;
79128;SDS011;68529;43.286;23.360;2023-12-07T09:27:32;19.00;;;13.67;;
79128;SDS011;68529;43.286;23.360;2023-12-07T09:29:59;14.97;;;11.33;;
79128;SDS011;68529;43.286;23.360;2023-12-07T09:32:25;25.63;;;19.60;;
79128;SDS011;68529;43.286;23.360;2023-12-07T09:34:53;32.37;;;25.53;;
79128;SDS011;68529;43.286;23.360;2023-12-07T09:37:18;33.87;;;25.97;;
79128;SDS011;68529;43.286;23.360;2023-12-07T09:39:44;19.07;;;16.33;;
79128;SDS011;68529;43.286;23.360;2023-12-07T09:42:09;15.10;;;13.33;;
79128;SDS011;68529;43.286;23.360;2023-12-07T09:44:35;16.77;;;13.97;;
79128;SDS011;68529;43.286;23.360;2023-12-07T09:47:01;15.43;;;12.13;;
79128;SDS011;68529;43.286;23.360;2023-12-07T09:49:26;12.10;;;9.63;;
79128;SDS011;68529;43.286;23.360;2023-12-07T09:51:52;11.07;;;9.07;;
79128;SDS011;68529;43.286;23.360;2023-12-07T09:54:19;13.00;;;10.07;;
79128;SDS011;68529;43.286;23.360;2023-12-07T09:56:46;14.60;;;10.10;;
79128;SDS011;68529;43.286;23.360;2023-12-07T09:59:12;18.47;;;11.93;;
79128;SDS011;68529;43.286;23.360;2023-12-07T10:01:37;12.60;;;9.70;;
79128;SDS011;68529;43.286;23.360;2023-12-07T10:04:16;19.13;;;14.70;;
79128;SDS011;68529;43.286;23.360;2023-12-07T10:06:47;20.50;;;15.40;;
79128;SDS011;68529;43.286;23.360;2023-12-07T10:09:13;19.60;;;14.73;;
79128;SDS011;68529;43.286;23.360;2023-12-07T10:11:41;15.00;;;11.60;;
79128;SDS011;68529;43.286;23.360;2023-12-07T10:14:09;19.63;;;16.03;;
79128;SDS011;68529;43.286;23.360;2023-12-07T10:16:36;11.70;;;10.43;;
79128;SDS011;68529;43.286;23.360;2023-12-07T10:19:12;11.40;;;9.60;;
79128;SDS011;68529;43.286;23.360;2023-12-07T10:21:39;8.10;;;6.50;;
79128;SDS011;68529;43.286;23.360;2023-12-07T10:24:05;7.87;;;6.90;;
79128;SDS011;68529;43.286;23.360;2023-12-07T10:26:30;7.83;;;6.33;;
79128;SDS011;68529;43.286;23.360;2023-12-07T10:28:56;7.13;;;5.90;;
79128;SDS011;68529;43.286;23.360;2023-12-07T10:31:23;5.83;;;5.20;;
79128;SDS011;68529;43.286;23.360;2023-12-07T10:33:49;7.87;;;6.53;;
79128;SDS011;68529;43.286;23.360;2023-12-07T10:36:15;7.37;;;5.90;;
79128;SDS011;68529;43.286;23.360;2023-12-07T10:38:40;7.53;;;6.30;;
79128;SDS011;68529;43.286;23.360;2023-12-07T10:41:12;7.60;;;6.10;;
79128;SDS011;68529;43.286;23.360;2023-12-07T10:43:38;7.03;;;5.50;;
79128;SDS011;68529;43.286;23.360;2023-12-07T10:46:08;9.50;;;7.50;;
79128;SDS011;68529;43.286;23.360;2023-12-07T10:48:35;9.77;;;8.50;;
79128;SDS011;68529;43.286;23.360;2023-12-07T10:51:06;5.40;;;4.87;;
79128;SDS011;68529;43.286;23.360;2023-12-07T10:53:40;5.70;;;5.07;;
79128;SDS011;68529;43.286;23.360;2023-12-07T10:56:18;5.87;;;5.10;;
79128;SDS011;68529;43.286;23.360;2023-12-07T10:58:53;5.40;;;4.90;;
79128;SDS011;68529;43.286;23.360;2023-12-07T11:01:20;5.27;;;4.77;;
79128;SDS011;68529;43.286;23.360;2023-12-07T11:03:49;5.43;;;4.27;;
79128;SDS011;68529;43.286;23.360;2023-12-07T11:06:14;5.20;;;4.33;;
79128;SDS011;68529;43.286;23.360;2023-12-07T11:08:43;4.40;;;4.00;;
79128;SDS011;68529;43.286;23.360;2023-12-07T11:14:11;4.30;;;3.90;;
79128;SDS011;68529;43.286;23.360;2023-12-07T11:16:41;5.67;;;4.77;;
79128;SDS011;68529;43.286;23.360;2023-12-07T11:21:55;5.40;;;4.73;;
79128;SDS011;68529;43.286;23.360;2023-12-07T11:24:23;4.20;;;3.63;;
79128;SDS011;68529;43.286;23.360;2023-12-07T11:26:48;5.37;;;4.40;;
79128;SDS011;68529;43.286;23.360;2023-12-07T11:29:19;3.57;;;2.97;;
79128;SDS011;68529;43.286;23.360;2023-12-07T11:31:45;4.33;;;3.93;;
79128;SDS011;68529;43.286;23.360;2023-12-07T11:34:13;4.70;;;4.13;;
79128;SDS011;68529;43.286;23.360;2023-12-07T11:36:40;4.13;;;3.80;;
79128;SDS011;68529;43.286;23.360;2023-12-07T11:41:45;6.73;;;6.00;;
79128;SDS011;68529;43.286;23.360;2023-12-07T11:44:15;3.67;;;3.37;;
79128;SDS011;68529;43.286;23.360;2023-12-07T11:46:42;4.93;;;4.43;;
79128;SDS011;68529;43.286;23.360;2023-12-07T11:49:08;4.20;;;3.80;;
79128;SDS011;68529;43.286;23.360;2023-12-07T11:51:36;7.27;;;6.57;;
79128;SDS011;68529;43.286;23.360;2023-12-07T11:54:02;5.40;;;5.00;;
79128;SDS011;68529;43.286;23.360;2023-12-07T11:56:27;5.77;;;4.80;;
79128;SDS011;68529;43.286;23.360;2023-12-07T11:58:52;6.07;;;5.47;;
79128;SDS011;68529;43.286;23.360;2023-12-07T12:01:18;6.63;;;5.97;;
79128;SDS011;68529;43.286;23.360;2023-12-07T12:03:43;5.83;;;5.30;;
79128;SDS011;68529;43.286;23.360;2023-12-07T12:06:09;5.33;;;4.83;;
79128;SDS011;68529;43.286;23.360;2023-12-07T12:08:36;5.50;;;5.00;;
79128;SDS011;68529;43.286;23.360;2023-12-07T12:11:04;4.20;;;3.80;;
79128;SDS011;68529;43.286;23.360;2023-12-07T12:13:30;3.70;;;3.40;;
79128;SDS011;68529;43.286;23.360;2023-12-07T12:16:00;4.37;;;3.97;;
79128;SDS011;68529;43.286;23.360;2023-12-07T12:18:26;4.10;;;3.70;;
79128;SDS011;68529;43.286;23.360;2023-12-07T12:20:52;3.60;;;3.20;;
79128;SDS011;68529;43.286;23.360;2023-12-07T12:23:18;3.27;;;2.97;;
79128;SDS011;68529;43.286;23.360;2023-12-07T12:25:43;5.70;;;5.03;;
79128;SDS011;68529;43.286;23.360;2023-12-07T12:28:09;5.97;;;5.33;;
79128;SDS011;68529;43.286;23.360;2023-12-07T12:30:35;5.37;;;4.70;;
79128;SDS011;68529;43.286;23.360;2023-12-07T12:33:01;3.37;;;3.07;;
79128;SDS011;68529;43.286;23.360;2023-12-07T12:35:27;2.77;;;2.57;;
79128;SDS011;68529;43.286;23.360;2023-12-07T12:37:53;2.77;;;2.57;;
79128;SDS011;68529;43.286;23.360;2023-12-07T12:40:22;2.07;;;1.87;;
79128;SDS011;68529;43.286;23.360;2023-12-07T12:42:49;3.37;;;2.83;;
79128;SDS011;68529;43.286;23.360;2023-12-07T12:45:16;2.17;;;1.97;;
79128;SDS011;68529;43.286;23.360;2023-12-07T12:47:43;4.30;;;3.30;;
79128;SDS011;68529;43.286;23.360;2023-12-07T12:50:10;1.50;;;1.23;;
79128;SDS011;68529;43.286;23.360;2023-12-07T12:52:36;3.77;;;3.43;;
79128;SDS011;68529;43.286;23.360;2023-12-07T12:55:06;2.20;;;2.00;;
79128;SDS011;68529;43.286;23.360;2023-12-07T12:57:33;2.50;;;2.30;;
79128;SDS011;68529;43.286;23.360;2023-12-07T13:00:01;2.87;;;2.50;;
79128;SDS011;68529;43.286;23.360;2023-12-07T13:02:27;2.10;;;1.90;;
79128;SDS011;68529;43.286;23.360;2023-12-07T13:04:52;3.53;;;2.57;;
79128;SDS011;68529;43.286;23.360;2023-12-07T13:07:18;4.70;;;3.13;;
79128;SDS011;68529;43.286;23.360;2023-12-07T13:09:44;4.63;;;3.17;;
79128;SDS011;68529;43.286;23.360;2023-12-07T13:12:10;3.60;;;3.30;;
79128;SDS011;68529;43.286;23.360;2023-12-07T13:14:35;3.97;;;3.13;;
79128;SDS011;68529;43.286;23.360;2023-12-07T13:17:03;3.33;;;3.03;;
79128;SDS011;68529;43.286;23.360;2023-12-07T13:19:29;6.57;;;5.07;;
79128;SDS011;68529;43.286;23.360;2023-12-07T13:21:55;7.87;;;6.00;;
79128;SDS011;68529;43.286;23.360;2023-12-07T13:24:20;6.70;;;4.30;;
79128;SDS011;68529;43.286;23.360;2023-12-07T13:26:46;3.23;;;2.93;;
79128;SDS011;68529;43.286;23.360;2023-12-07T13:29:12;8.30;;;6.40;;
79128;SDS011;68529;43.286;23.360;2023-12-07T13:31:38;8.80;;;7.07;;
79128;SDS011;68529;43.286;23.360;2023-12-07T13:34:03;8.97;;;6.57;;
79128;SDS011;68529;43.286;23.360;2023-12-07T13:36:28;5.87;;;4.10;;
79128;SDS011;68529;43.286;23.360;2023-12-07T13:38:56;3.53;;;2.97;;
79128;SDS011;68529;43.286;23.360;2023-12-07T13:41:21;5.77;;;4.17;;
79128;SDS011;68529;43.286;23.360;2023-12-07T13:43:47;6.03;;;5.10;;
79128;SDS011;68529;43.286;23.360;2023-12-07T13:46:13;4.17;;;3.80;;
79128;SDS011;68529;43.286;23.360;2023-12-07T13:48:39;3.50;;;3.20;;
79128;SDS011;68529;43.286;23.360;2023-12-07T13:51:05;2.80;;;2.60;;
79128;SDS011;68529;43.286;23.360;2023-12-07T13:53:31;1.90;;;1.80;;
79128;SDS011;68529;43.286;23.360;2023-12-07T13:55:56;2.00;;;1.90;;
79128;SDS011;68529;43.286;23.360;2023-12-07T13:58:21;1.90;;;1.80;;
79128;SDS011;68529;43.286;23.360;2023-12-07T14:00:47;1.70;;;1.60;;
79128;SDS011;68529;43.286;23.360;2023-12-07T14:03:12;2.00;;;1.87;;
79128;SDS011;68529;43.286;23.360;2023-12-07T14:05:38;2.40;;;2.07;;
79128;SDS011;68529;43.286;23.360;2023-12-07T14:08:07;2.30;;;1.90;;
79128;SDS011;68529;43.286;23.360;2023-12-07T14:10:33;3.17;;;2.63;;
79128;SDS011;68529;43.286;23.360;2023-12-07T14:12:59;3.50;;;3.20;;
79128;SDS011;68529;43.286;23.360;2023-12-07T14:15:25;8.57;;;7.57;;
79128;SDS011;68529;43.286;23.360;2023-12-07T14:17:51;11.07;;;8.97;;